Flight Track Log - Related Links

Times and Time Zones

All times are in EDT time to prevent confusion due to time zone crossing. See the SWA558 flight status page for this flight to view local times or setup timezone preferences in your user account.


Time Position Orientation Groundspeed Altitude Reporting Facility
EDT Latitude Longitude Course Direction KTS MPH feet Rate Location/Type
Sun 07:22:51 PM 30.1725 -97.5767 103° East 265 305 5,900  Level Houston Center
Sun 07:23:53 PM 30.2300 -97.5044 47° Northeast 292 336 10,300 3,339 Climbing Houston Center
Sun 07:24:55 PM 30.2864 -97.4144 54° Northeast 340 391 12,800 3,097 Climbing Houston Center
Sun 07:25:57 PM 30.3300 -97.2869 68° East 366 421 16,700 3,290 Climbing Houston Center
Sun 07:26:59 PM 30.3581 -97.1636 75° East 401 461 19,600 2,710 Climbing Houston Center
Sun 07:27:00 PM 30.3333 -96.8997 90° East  Level FlightAware Approximate
Sun 07:28:00 PM 30.3241 -96.7537 103° East  Level FlightAware Approximate
Sun 07:28:01 PM 30.3492 -97.0281 94° East 420 483 22,300  Level Houston Center
Sun 07:29:03 PM 30.3406 -96.8842 94° East 438 504 24,800 2,177 Climbing Houston Center
Sun 07:30:05 PM 30.3317 -96.7367 94° East 456 525 26,800 1,839 Climbing Houston Center
Sun 07:31:07 PM 30.3217 -96.5819 94° East 476 548 28,600 1,887 Climbing Houston Center
Sun 07:32:09 PM 30.3103 -96.3956 94° East 491 565 30,700 1,839 Climbing Houston Center
Sun 07:33:11 PM 30.2997 -96.2311 94° East 506 582 32,400 1,790 Climbing Houston Center
Sun 07:34:13 PM 30.2889 -96.0653 94° East 512 589 34,400 1,597 Climbing Houston Center
Sun 07:35:15 PM 30.2653 -95.9197 101° East 502 578 35,700 1,113 Climbing Houston Center
Sun 07:36:17 PM 30.2383 -95.7550 101° East 517 595 36,700 1,161 Climbing Houston Center
Sun 07:37:19 PM 30.2061 -95.5561 101° East 523 602 38,100 1,065 Climbing Houston Center
Sun 07:38:21 PM 30.1786 -95.3886 101° East 527 606 38,900 435 Climbing Houston Center
Sun 07:39:23 PM 30.1500 -95.2172 101° East 536 617 39,000 48 Climbing Houston Center
Sun 07:40:25 PM 30.1200 -95.0450 101° East 541 623 39,000  Level Houston Center
Sun 07:41:27 PM 30.0906 -94.8733 101° East 543 625 39,000  Level Houston Center
Sun 07:42:29 PM 30.0611 -94.7017 101° East 542 624 39,000  Level Houston Center
Sun 07:43:31 PM 30.0303 -94.5281 102° East 546 628 39,000  Level Houston Center
Sun 07:44:33 PM 29.9947 -94.3253 101° East 544 626 39,000  Level Houston Center
Sun 07:45:35 PM 29.9647 -94.1550 101° East 546 628 39,000  Level Houston Center
Sun 07:46:37 PM 29.9342 -93.9867 102° East 542 624 39,000  Level Houston Center
Sun 07:47:39 PM 29.9033 -93.8189 102° East 541 623 39,000  Level Houston Center
Sun 07:48:41 PM 29.8736 -93.6511 102° East 541 623 39,000  Level Houston Center
Sun 07:49:43 PM 29.8350 -93.4489 102° East 544 626 39,000  Level Houston Center
Sun 07:50:44 PM 29.8056 -93.2819 101° East 540 621 39,000  Level Houston Center
Sun 07:51:46 PM 29.7739 -93.1153 102° East 538 619 39,000  Level Houston Center
Sun 07:52:48 PM 29.7428 -92.9483 102° East 537 618 39,000  Level Houston Center
Sun 07:53:50 PM 29.7117 -92.7819 102° East 537 618 39,000  Level Houston Center
Sun 07:54:52 PM 29.6736 -92.5831 102° East 534 615 39,000  Level Houston Center
Sun 07:55:54 PM 29.6419 -92.4183 102° East 531 611 39,000  Level Houston Center
Sun 07:56:56 PM 29.6103 -92.2511 102° East 534 615 39,000  Level Houston Center
Sun 07:57:58 PM 29.5772 -92.0861 103° East 533 613 39,000  Level Houston Center
Sun 07:59:00 PM 29.5450 -91.9217 103° East 531 611 39,000  Level Houston Center
Sun 08:00:02 PM 29.5131 -91.7567 103° East 531 611 39,000  Level Houston Center
Sun 08:01:04 PM 29.4767 -91.5672 102° East 530 610 39,000  Level Houston Center
Sun 08:02:06 PM 29.4439 -91.4022 103° East 530 610 39,000  Level Houston Center
Sun 08:03:08 PM 29.4100 -91.2389 103° East 529 609 39,000  Level Houston Center
Sun 08:04:10 PM 29.3767 -91.0750 103° East 530 610 39,000  Level Houston Center
Sun 08:05:12 PM 29.3367 -90.8761 103° East 534 615 39,000  Level Houston Center
Sun 08:06:14 PM 29.3025 -90.7128 103° East 531 611 39,000  Level Houston Center
Sun 08:07:16 PM 29.2683 -90.5469 103° East 535 616 39,000  Level Houston Center
Sun 08:08:17 PM 29.2336 -90.3833 104° East 534 615 39,000  Level Houston Center
Sun 08:09:19 PM 29.1992 -90.2206 104° East 532 612 39,000  Level Houston Center
Sun 08:10:21 PM 29.1656 -90.0556 103° East 534 615 39,000  Level Houston Center
Sun 08:11:23 PM 29.1253 -89.8583 103° East 535 616 39,000  Level Houston Center
Sun 08:12:25 PM 29.0908 -89.6928 103° East 537 618 39,000  Level Houston Center
Sun 08:13:27 PM 29.0569 -89.5258 103° East 541 623 39,000  Level Houston Center
Sun 08:14:29 PM 29.0222 -89.3608 103° East 539 620 39,000  Level Houston Center
Sun 08:15:30 PM 28.9883 -89.1981 103° East 533 613 39,000  Level Houston Center
Sun 08:16:32 PM 28.9542 -89.0339 103° East 532 612 39,000  Level Houston Center
Sun 08:17:34 PM 28.9122 -88.8386 104° East 530 610 39,000  Level Houston Center
Sun 08:18:36 PM 28.8778 -88.6775 104° East 525 604 39,000  Level Houston Center
Sun 08:19:38 PM 28.8339 -88.5211 108° East 520 598 39,000  Level Houston Center
Sun 08:20:40 PM 28.7894 -88.3642 108° East 520 598 39,000  Level Houston Center
Sun 08:21:42 PM 28.7464 -88.2083 107° East 518 596 39,000  Level Houston Center
Sun 08:22:43 PM 28.7022 -88.0478 107° East 518 596 39,000  Level Houston Center
Sun 08:23:45 PM 28.6583 -87.8919 108° East 517 595 39,000  Level Houston Center
Sun 08:24:47 PM 28.6164 -87.7006 104° East 520 598 39,000  Level Houston Center
Sun 08:25:44 PM 28.5906 -87.5708 103° East 505 581 39,000  Level Jacksonville Center
Sun 08:26:44 PM 28.5547 -87.4086 104° East 505 581 39,000  Level Jacksonville Center
Sun 08:27:44 PM 28.5164 -87.2464 105° East 518 596 39,000  Level Jacksonville Center
Sun 08:28:44 PM 28.4842 -87.0914 103° East 513 590 39,000  Level Jacksonville Center
Sun 08:29:44 PM 28.4478 -86.9200 104° East 513 590 39,000  Level Jacksonville Center
Sun 08:30:44 PM 28.4092 -86.7556 105° East 519 597 39,000  Level Jacksonville Center
Sun 08:31:44 PM 28.3761 -86.6011 104° East 514 592 39,000  Level Jacksonville Center
Sun 08:32:44 PM 28.3389 -86.4442 105° East 515 593 39,000  Level Jacksonville Center
Sun 08:33:44 PM 28.3014 -86.2847 105° East 510 587 39,000  Level Jacksonville Center
Sun 08:34:44 PM 28.2678 -86.1353 104° East 505 581 39,000  Level Jacksonville Center
Sun 08:35:45 PM 28.2319 -85.9786 105° East 505 581 39,000  Level Jacksonville Center
Sun 08:36:44 PM 28.1958 -85.8222 105° East 505 581 39,000  Level Jacksonville Center
Sun 08:37:44 PM 28.1597 -85.6633 104° East 510 587 39,000  Level Jacksonville Center
Sun 08:40:03 PM 28.0817 -85.3314 105° East 489 563 39,000  Level Miami Center
Sun 08:41:03 PM 28.0469 -85.1786 104° East 484 557 39,000  Level Miami Center
Sun 08:42:03 PM 28.0100 -85.0208 105° East 490 564 39,000  Level Miami Center
Sun 08:43:03 PM 27.9747 -84.8728 105° East 496 571 39,000  Level Miami Center
Sun 08:44:03 PM 27.9278 -84.7031 107° East 486 559 39,000  Level Miami Center
Sun 08:45:03 PM 27.8922 -84.5503 105° East 492 566 39,000 -250 Level Miami Center
Sun 08:46:03 PM 27.8525 -84.3975 106° East 497 572 38,500 -700 Descending Miami Center
Sun 08:47:03 PM 27.8206 -84.2500 104° East 502 578 37,600 -1,050 Descending Miami Center
Sun 08:48:03 PM 27.7825 -84.0975 106° East 497 572 36,400 -1,900 Descending Miami Center
Sun 08:49:03 PM 27.7419 -83.9450 107° East 502 578 33,800 -2,350 Descending Miami Center
Sun 08:50:03 PM 27.7119 -83.7933 103° East 502 578 31,700 -2,050 Descending Miami Center
Sun 08:51:03 PM 27.6731 -83.6481 107° East 496 571 29,700 -1,900 Descending Miami Center
Sun 08:52:03 PM 27.6358 -83.5075 107° East 479 551 27,900 -2,150 Descending Miami Center
Sun 08:53:03 PM 27.6064 -83.3747 104° East 460 529 25,400 -2,500 Descending Miami Center
Sun 08:54:03 PM 27.6064 -83.2367 90° East 430 495 22,900 -2,500 Descending Miami Center
Sun 08:55:03 PM 27.6431 -83.1100 72° East 415 478 20,400 -1,950 Descending Miami Center
Sun 08:56:03 PM 27.6817 -82.9903 70° East 420 483 19,000 -1,200 Descending Miami Center
Sun 08:57:03 PM 27.7175 -82.8797 70° East 393 452 18,000 -950 Descending Miami Center
Sun 08:58:03 PM 27.7489 -82.7781 71° East 371 427 17,100 -950 Descending Miami Center
Sun 08:59:03 PM 27.7800 -82.6789 70° East 347 399 16,100 -1,000 Descending Miami Center
Sun 09:00:03 PM 27.8114 -82.5772 71° East 335 386 15,100 -600 Descending Miami Center
Sun 09:01:03 PM 27.8422 -82.4803 70° East 330 380 14,900 -100 Descending Miami Center
Sun 09:02:03 PM 27.8708 -82.3853 71° East 323 372 14,900  Level Miami Center
Sun 09:03:03 PM 27.9019 -82.2858 70° East 323 372 14,900 -150 Level Miami Center
Sun 09:04:03 PM 27.9303 -82.1981 70° East 323 372 14,600 -706 Descending Miami Center
Sun 09:05:36 PM 27.9833 -82.0333 70° East 323 372 13,100 -588 Descending Orlando TRACON
Sun 09:06:36 PM 28.0167 -81.9500 66° East 316 364 13,100  Level Orlando TRACON
Sun 09:07:36 PM 28.0667 -81.8500 60° Northeast 317 365 13,100 -750 Level Orlando TRACON
Sun 09:08:36 PM 28.1000 -81.7667 66° East 314 361 11,600 -1,500 Descending Orlando TRACON
Sun 09:09:36 PM 28.1167 -81.6833 77° East 296 341 10,100 -1,650 Descending Orlando TRACON
Sun 09:10:36 PM 28.1167 -81.5833 90° East 291 335 8,300 -1,526 Descending Orlando TRACON
Sun 09:11:30 PM 28.1000 -81.5167 106° East 281 323 7,200 -1,053 Descending Orlando TRACON
Sun 09:12:30 PM 28.1167 -81.4500 74° East 233 268 6,300 -1,050 Descending Orlando TRACON
Sun 09:13:30 PM 28.1500 -81.3833 60° Northeast 230 265 5,100 -1,250 Descending Orlando TRACON
Sun 09:14:30 PM 28.2000 -81.3333 41° Northeast 222 255 3,800 -1,300 Descending Orlando TRACON
Sun 09:15:30 PM 28.2500 -81.3000 30° Northeast 216 249 2,500 -1,100 Descending Orlando TRACON
Sun 09:16:30 PM 28.3000 -81.3000 360° North 184 212 1,600 -667 Descending Orlando TRACON
Sun 09:17:36 PM 28.3500 -81.3000 360° North 147 169 1,100 -545 Descending Orlando TRACON
Sun 09:18:42 PM 28.4000 -81.3000 360° North 120 138 400 -636 Descending Orlando TRACON
Sun 09:20:00 PM 28.4294 -81.3090 345° North  Level Estimated

Login

Don't have an account? Register now (free) for customized features, flight alerts, and more!